Airfield :







YOU CAN JOIN US ON...

 
LOGIN :

Register | Disclaimer

   EN    FR    IT 

 









Legend :    VFR   Marginal VFR   IFR   Intensive IFR   Very Intensive IFR
Visi :
Ceiling :
>= 8 km
>= 3000ft
5 to 8 km
1000 to 3000 ft
1500m to 5 km
500 to 1000 ft
800 to 1500m
200 to 500 ft
< 800m
< 200 ft
Symbols :   Thunderstorms  Fog  Heavy snow  Heavy precipitations  Wind > 20 kt






- Airport Elevation : 271 ft


KBAF - Barnes Municipal

CURRENT METAR :
  • 220053Z 32013KT 10SM BKN036 03/M02 A2965 RMK AO2 PK WND 32026/0027 RAB2355E05 SLP043 P0000 T00331017

EXPIRED METARs :
  • 212353Z 32017G21KT 10SM FEW025 SCT030 BKN090 04/M01 A2962 RMK AO2 SLP033 60022 T00391006 10194 20039 51023
  • 212253Z 30013KT 10SM FEW024 SCT050 OVC060 05/01 A2961 RMK AO2 RAB09E24 SLP030 P0000 T00500006

TAF KBAF
Valid from the 22 at 00:00 until the 23 at 00:00 UTC


212336Z 2200/2224 30013KT P6SM FEW024 SCT050
FM220100 32013G22KT P6SM BKN060
FM221900 28014G31KT P6SM BKN250
KZBW FIR / North America



MET'MAP, your aeronautical weather chart ! - Copyright ORBIFLY December 2007 - Disclaimer

ORBIFLY MET'MAP TEAM :

Programming & Development : Alexandra Zaïnal
Concept & original design : Baudouin d'Aumeries
Assistance for programming : Marc-Olivier Méhu
Technical & hardware support : Manuel Goepfert

Contact : metmap@orbifly.com




SOURCES & CREDITS :

   NOAA